Aviation Digital Data Service (ADDS)

Output produced by METARs form (0858 UTC 24 March 2019)
found at http://www.aviationweather.gov/metar/data/
 
Forecast for: WMKE (KERTEH , MY)
Text: TAF WMKE 240500Z 2406/2506 06007KT 9999 FEW015 BKN270
Forecast period: 0600 to 1400 UTC 24 March 2019
Forecast type: FROM: standard forecast or significant change
Winds: from the ENE (60 degrees) at 8 MPH (7 knots; 3.6 m/s)
Visibility: 6 or more miles 10+ km)
Ceiling: 27000 feet AGL
Clouds: few clouds at 1500 feet AGL
broken clouds at 27000 feet AGL
Weather: no significant weather forecast for this period
Text: BECMG 2414/2416 VRB02KT
Forecast period: 1400 UTC 24 March 2019 to 0600 UTC 25 March 2019
Forecast type: BECOMING: Conditions expected to become as follows by 1600 UTC 24 March 2019
Winds: variable direction winds at 2 MPH (2 knots; 1.0 m/s)
Visibility: 6 or more miles 10+ km)
Ceiling: 27000 feet AGL
Clouds: few clouds at 1500 feet AGL
broken clouds at 27000 feet AGL
Weather: no significant weather forecast for this period